createdAt,value
2022-09-18T00:00:25.629Z,76.04
2022-09-18T00:02:55.081Z,77.12
2022-09-18T00:05:26.617Z,77.54
2022-09-18T00:07:58.603Z,77.19
2022-09-18T00:10:28.672Z,78.26
2022-09-18T00:12:58.337Z,76.25
2022-09-18T00:15:27.151Z,76.51
2022-09-18T00:17:55.682Z,77.14
2022-09-18T00:20:30.696Z,75.47
2022-09-18T00:23:00.062Z,76.16
2022-09-18T00:25:32.934Z,75.66
2022-09-18T00:28:01.573Z,75.30
2022-09-18T00:30:32.808Z,75.69
2022-09-18T00:33:01.462Z,74.24
2022-09-18T00:35:31.707Z,74.71
2022-09-18T00:38:07.856Z,74.64
2022-09-18T00:40:36.261Z,73.72
2022-09-18T00:43:11.233Z,74.33
2022-09-18T00:45:39.606Z,75.02
2022-09-18T00:48:10.976Z,73.08
2022-09-18T00:50:41.229Z,72.82
2022-09-18T00:53:10.147Z,73.02
2022-09-18T00:55:39.005Z,73.15
2022-09-18T00:58:12.735Z,73.54
2022-09-18T01:00:41.333Z,73.32
2022-09-18T01:03:19.445Z,72.50
2022-09-18T01:05:53.165Z,72.72
2022-09-18T01:08:24.259Z,73.25
2022-09-18T01:10:59.295Z,72.21
2022-09-18T01:13:30.099Z,70.97
2022-09-18T01:16:01.029Z,70.98
2022-09-18T01:18:30.820Z,70.81
2022-09-18T01:21:13.897Z,70.39
2022-09-18T01:23:48.805Z,70.09
2022-09-18T01:26:21.493Z,69.56
2022-09-18T01:28:53.138Z,70.18
2022-09-18T01:31:29.467Z,70.71
2022-09-18T01:33:59.576Z,69.39
2022-09-18T01:36:34.365Z,70.08
2022-09-18T01:39:09.576Z,69.38
2022-09-18T01:41:38.523Z,69.44
2022-09-18T01:44:16.677Z,67.81
2022-09-18T01:46:45.318Z,68.01
2022-09-18T01:49:14.232Z,68.41
2022-09-18T01:51:44.497Z,68.46
2022-09-18T01:54:15.679Z,68.50
2022-09-18T01:56:52.956Z,68.28
2022-09-18T01:59:40.552Z,68.33
2022-09-18T02:02:13.703Z,67.42
2022-09-18T02:04:48.799Z,68.25
2022-09-18T02:07:23.224Z,67.76
2022-09-18T02:09:51.863Z,68.00
2022-09-18T02:12:21.504Z,66.83
2022-09-18T02:14:53.060Z,67.41
2022-09-18T02:17:27.135Z,67.24
2022-09-18T02:19:55.911Z,67.11
2022-09-18T02:22:30.285Z,67.10
2022-09-18T02:24:59.552Z,66.32
2022-09-18T02:27:29.555Z,67.14
2022-09-18T02:29:59.557Z,66.60
2022-09-18T02:32:31.531Z,66.42
2022-09-18T02:35:00.154Z,66.36
2022-09-18T02:37:31.926Z,66.68
2022-09-18T02:40:25.811Z,66.91
2022-09-18T02:42:57.053Z,66.54
2022-09-18T02:45:28.856Z,66.39
2022-09-18T02:48:03.846Z,66.58
2022-09-18T02:50:37.787Z,67.10
2022-09-18T02:53:09.096Z,66.37
2022-09-18T02:55:44.349Z,67.27
2022-09-18T02:58:14.233Z,67.71
2022-09-18T03:00:44.334Z,66.15
2022-09-18T03:03:14.502Z,66.39
2022-09-18T03:05:44.634Z,66.37
2022-09-18T03:08:12.983Z,65.73
2022-09-18T03:10:45.145Z,66.07
2022-09-18T03:13:13.762Z,66.37
2022-09-18T03:15:47.110Z,66.00
2022-09-18T03:18:17.123Z,65.67
2022-09-18T03:20:48.243Z,66.06
2022-09-18T03:23:17.136Z,65.66
2022-09-18T03:25:50.149Z,65.09
2022-09-18T03:28:19.217Z,65.35
2022-09-18T03:30:49.987Z,65.11
2022-09-18T03:33:19.965Z,65.95
2022-09-18T03:35:53.366Z,65.96
2022-09-18T03:38:22.157Z,64.89
2022-09-18T03:40:54.478Z,63.31
2022-09-18T03:43:23.127Z,64.18
2022-09-18T03:45:54.910Z,63.86
2022-09-18T03:48:24.895Z,64.48
2022-09-18T03:50:53.729Z,62.91
2022-09-18T03:53:23.003Z,64.06
2022-09-18T03:55:53.108Z,63.98
2022-09-18T03:58:22.442Z,64.38
2022-09-18T04:00:52.031Z,63.93
2022-09-18T04:03:30.782Z,64.12
2022-09-18T04:06:05.678Z,63.64
2022-09-18T04:08:38.751Z,63.88
2022-09-18T04:11:09.689Z,63.96
2022-09-18T04:13:40.132Z,64.32
2022-09-18T04:16:10.157Z,64.18
2022-09-18T04:18:48.314Z,64.13
2022-09-18T04:21:16.680Z,64.33
2022-09-18T04:23:47.096Z,64.72
2022-09-18T04:26:15.495Z,64.81
2022-09-18T04:28:49.271Z,63.70
2022-09-18T04:31:17.656Z,64.70
2022-09-18T04:33:51.085Z,64.62
2022-09-18T04:36:19.743Z,64.39
2022-09-18T04:38:51.439Z,65.42
2022-09-18T04:41:21.366Z,65.42
2022-09-18T04:43:52.632Z,64.51
2022-09-18T04:46:21.283Z,63.77
2022-09-18T04:48:55.243Z,63.98
2022-09-18T04:51:24.438Z,63.54
2022-09-18T04:53:56.462Z,63.33
2022-09-18T04:56:25.017Z,62.92
2022-09-18T04:58:57.075Z,62.12
2022-09-18T05:01:28.474Z,62.09
2022-09-18T05:04:06.153Z,62.51
2022-09-18T05:06:47.105Z,61.71
2022-09-18T05:09:24.287Z,61.51
2022-09-18T05:11:54.517Z,61.26
2022-09-18T05:14:28.339Z,61.01
2022-09-18T05:16:57.541Z,62.16
2022-09-18T05:19:27.749Z,60.39
2022-09-18T05:21:56.939Z,62.14
2022-09-18T05:24:27.894Z,61.93
2022-09-18T05:26:56.341Z,60.27
2022-09-18T05:29:28.450Z,61.42
2022-09-18T05:31:57.565Z,61.56
2022-09-18T05:34:31.260Z,61.22
2022-09-18T05:36:59.953Z,61.22
2022-09-18T05:39:37.376Z,60.66
2022-09-18T05:42:08.807Z,60.68
2022-09-18T05:44:40.725Z,61.41
2022-09-18T05:47:16.158Z,61.25
2022-09-18T05:49:45.832Z,60.50
2022-09-18T05:52:16.163Z,61.18
2022-09-18T05:54:45.337Z,61.94
2022-09-18T05:57:14.157Z,60.60
2022-09-18T05:59:43.120Z,60.56
2022-09-18T06:02:14.623Z,61.00
2022-09-18T06:04:47.874Z,60.63
2022-09-18T06:07:23.921Z,61.77
2022-09-18T06:09:52.565Z,60.45
2022-09-18T06:12:24.194Z,60.41
2022-09-18T06:14:52.782Z,61.50
2022-09-18T06:17:24.110Z,60.96
2022-09-18T06:19:54.878Z,61.50
2022-09-18T06:22:24.455Z,60.92
2022-09-18T06:24:53.059Z,60.50
2022-09-18T06:27:27.634Z,60.61
2022-09-18T06:29:56.227Z,59.94
2022-09-18T06:32:28.712Z,61.31
2022-09-18T06:34:58.772Z,59.51
2022-09-18T06:37:30.640Z,60.56
2022-09-18T06:39:59.349Z,61.24
2022-09-18T06:42:32.518Z,60.00
2022-09-18T06:45:01.378Z,60.44
2022-09-18T06:47:32.141Z,58.86
2022-09-18T06:50:02.287Z,59.96
2022-09-18T06:52:39.821Z,59.08
2022-09-18T06:55:11.457Z,59.74
2022-09-18T06:57:43.452Z,59.37
2022-09-18T07:00:18.207Z,58.71
2022-09-18T07:02:46.544Z,58.36
2022-09-18T07:05:22.306Z,58.28
2022-09-18T07:07:50.702Z,57.53
2022-09-18T07:10:22.084Z,58.07
2022-09-18T07:12:50.745Z,57.92
2022-09-18T07:15:21.924Z,55.06
2022-09-18T07:17:50.232Z,54.40
2022-09-18T07:20:23.401Z,54.89
2022-09-18T07:22:54.928Z,55.21
2022-09-18T07:25:30.006Z,54.12
2022-09-18T07:28:05.194Z,54.21
2022-09-18T07:30:34.000Z,54.98
2022-09-18T07:33:07.767Z,53.76
2022-09-18T07:35:43.157Z,52.94
2022-09-18T07:38:15.898Z,52.50
2022-09-18T07:40:51.442Z,52.56
2022-09-18T07:43:21.123Z,52.11
2022-09-18T07:45:52.897Z,51.83
2022-09-18T07:48:21.741Z,52.57
2022-09-18T07:50:57.295Z,51.97
2022-09-18T07:53:26.120Z,51.73
2022-09-18T07:55:57.646Z,51.81
2022-09-18T07:58:26.925Z,51.86
2022-09-18T08:01:01.080Z,51.54
2022-09-18T08:03:30.050Z,51.88
2022-09-18T08:06:00.996Z,51.37
2022-09-18T08:08:30.261Z,51.81
2022-09-18T08:10:59.318Z,52.33
2022-09-18T08:13:32.157Z,52.29
2022-09-18T08:16:04.287Z,52.35
2022-09-18T08:18:34.376Z,52.52
2022-09-18T08:21:11.536Z,52.42
2022-09-18T08:23:47.307Z,51.48
2022-09-18T08:26:20.000Z,51.23
2022-09-18T08:28:56.132Z,51.12
2022-09-18T08:31:32.318Z,51.01
2022-09-18T08:34:01.039Z,51.13
2022-09-18T08:36:30.873Z,50.86
2022-09-18T08:38:59.833Z,51.49
2022-09-18T08:41:36.798Z,51.17
2022-09-18T08:44:11.172Z,50.34
2022-09-18T08:46:41.608Z,49.88
2022-09-18T08:49:17.079Z,49.64
2022-09-18T08:51:48.771Z,49.41
2022-09-18T08:54:20.644Z,49.88
2022-09-18T08:56:49.241Z,50.65
2022-09-18T08:59:20.798Z,50.63
2022-09-18T09:01:51.312Z,50.49
2022-09-18T09:04:21.635Z,49.18
2022-09-18T09:07:04.438Z,49.66
2022-09-18T09:09:44.094Z,49.71
2022-09-18T09:12:14.829Z,50.43
2022-09-18T09:14:57.007Z,49.49
2022-09-18T09:17:34.288Z,49.81
2022-09-18T09:20:08.720Z,50.03
2022-09-18T09:22:40.155Z,49.64
2022-09-18T09:25:12.650Z,48.94
2022-09-18T09:27:43.504Z,49.45
2022-09-18T09:30:13.936Z,50.74
2022-09-18T09:33:03.246Z,48.95
2022-09-18T09:35:38.886Z,49.13
2022-09-18T09:40:52.284Z,49.03
2022-09-18T09:43:24.599Z,50.68
2022-09-18T09:45:53.187Z,50.01
2022-09-18T09:48:23.287Z,50.97
2022-09-18T09:50:54.578Z,49.73
2022-09-18T09:53:25.332Z,50.43
2022-09-18T09:55:56.117Z,51.00
2022-09-18T09:58:29.208Z,51.15
2022-09-18T10:00:59.419Z,51.44
2022-09-18T10:03:35.960Z,51.49
2022-09-18T10:06:10.994Z,51.13
2022-09-18T10:08:42.492Z,50.54
2022-09-18T10:11:13.186Z,50.86
2022-09-18T10:13:42.423Z,51.29
2022-09-18T10:16:12.082Z,50.03
2022-09-18T10:18:41.068Z,49.51
2022-09-18T10:21:15.597Z,49.17
2022-09-18T10:23:46.474Z,48.74
2022-09-18T10:26:16.840Z,48.66
2022-09-18T10:28:45.130Z,48.13
2022-09-18T10:31:16.611Z,47.98
2022-09-18T10:33:46.489Z,48.41
2022-09-18T10:36:20.071Z,48.41
2022-09-18T10:38:52.448Z,48.55
2022-09-18T10:41:24.731Z,48.36
2022-09-18T10:43:54.983Z,47.80
2022-09-18T10:46:31.515Z,48.21
2022-09-18T10:49:02.552Z,48.21
2022-09-18T10:51:30.949Z,48.01
2022-09-18T10:54:05.460Z,47.05
2022-09-18T10:56:36.350Z,46.91
2022-09-18T10:59:14.212Z,47.13
2022-09-18T11:01:48.411Z,47.76
2022-09-18T11:04:17.819Z,47.88
2022-09-18T11:06:49.566Z,47.43
2022-09-18T11:09:21.090Z,47.66
2022-09-18T11:11:53.340Z,46.38
2022-09-18T11:14:23.553Z,47.73
2022-09-18T11:16:52.767Z,46.52
2022-09-18T11:19:25.248Z,46.69
2022-09-18T11:21:56.230Z,46.14
2022-09-18T11:24:27.320Z,46.79
2022-09-18T11:26:57.530Z,47.23
2022-09-18T11:29:29.136Z,46.94
2022-09-18T11:31:58.438Z,45.19
2022-09-18T11:34:29.049Z,45.24
2022-09-18T11:36:59.515Z,45.32
2022-09-18T11:39:42.782Z,44.20
2022-09-18T11:42:21.885Z,43.87
2022-09-18T11:44:51.046Z,44.03
2022-09-18T11:47:37.727Z,43.82
2022-09-18T11:50:09.870Z,43.95
2022-09-18T11:52:44.899Z,42.88
2022-09-18T11:55:30.511Z,43.45
2022-09-18T11:57:59.842Z,42.61
2022-09-18T12:00:30.000Z,42.63
2022-09-18T12:03:00.523Z,41.58
2022-09-18T12:05:35.443Z,42.06
2022-09-18T12:08:05.772Z,40.58
2022-09-18T12:10:57.158Z,41.28
2022-09-18T12:13:41.035Z,41.51
2022-09-18T12:16:12.493Z,41.43
2022-09-18T12:19:03.269Z,39.90
2022-09-18T12:24:19.429Z,39.76
2022-09-18T12:27:04.916Z,39.06
2022-09-18T12:29:44.134Z,38.83
2022-09-18T12:32:24.161Z,38.00
2022-09-18T12:34:55.068Z,39.57
2022-09-18T12:37:33.763Z,37.38
2022-09-18T12:40:26.706Z,36.53
2022-09-18T12:43:01.334Z,36.35
2022-09-18T12:45:49.770Z,35.35
2022-09-18T12:48:31.762Z,36.27
2022-09-18T12:51:09.662Z,35.88
2022-09-18T12:53:42.225Z,36.31
2022-09-18T12:56:25.692Z,35.19
2022-09-18T12:58:59.836Z,36.85
2022-09-18T13:01:45.788Z,34.87
2022-09-18T13:04:45.679Z,32.29
2022-09-18T13:07:15.143Z,33.89
2022-09-18T13:09:51.745Z,33.28
2022-09-18T13:12:27.071Z,33.28
2022-09-18T13:15:07.274Z,34.21
2022-09-18T13:17:37.892Z,35.19
2022-09-18T13:20:12.717Z,36.10
2022-09-18T13:22:41.587Z,36.10
2022-09-18T13:25:15.866Z,36.47
2022-09-18T13:27:44.671Z,37.27
2022-09-18T13:30:17.707Z,37.61
2022-09-18T13:32:53.685Z,37.58
2022-09-18T13:35:25.084Z,37.15
2022-09-18T13:38:12.817Z,37.36
2022-09-18T13:40:49.134Z,37.69
2022-09-18T13:43:26.559Z,38.76
2022-09-18T13:45:58.030Z,42.53
2022-09-18T13:48:34.232Z,54.26
2022-09-18T13:51:05.656Z,57.80
2022-09-18T13:53:40.233Z,59.67
2022-09-18T13:56:09.567Z,58.64
2022-09-18T13:59:00.498Z,60.06
2022-09-18T14:01:57.030Z,61.35
2022-09-18T14:04:46.681Z,64.67
2022-09-18T14:07:30.150Z,63.71
2022-09-18T14:10:03.907Z,62.40
2022-09-18T14:12:34.530Z,64.06
2022-09-18T14:15:21.051Z,63.12
2022-09-18T14:18:05.270Z,64.13
2022-09-18T14:20:34.198Z,61.96
2022-09-18T14:23:17.496Z,60.24
2022-09-18T14:25:52.431Z,58.03
2022-09-18T14:28:22.272Z,57.52
2022-09-18T14:31:17.975Z,54.39
2022-09-18T14:33:46.425Z,57.05
2022-09-18T14:36:16.429Z,57.12
2022-09-18T14:38:45.603Z,57.54
2022-09-18T14:41:29.247Z,58.73
2022-09-18T14:44:06.368Z,59.24
2022-09-18T14:46:42.209Z,60.55
2022-09-18T14:49:24.075Z,60.64
2022-09-18T14:52:04.035Z,61.58
2022-09-18T14:54:40.906Z,61.72
2022-09-18T14:57:13.549Z,60.82
2022-09-18T14:59:50.864Z,60.80
2022-09-18T15:02:20.666Z,60.11
2022-09-18T15:04:52.462Z,58.54
2022-09-18T15:07:21.507Z,56.55
2022-09-18T15:09:59.748Z,55.94
2022-09-18T15:12:30.900Z,55.72
2022-09-18T15:15:06.150Z,54.73
2022-09-18T15:17:35.376Z,53.47
2022-09-18T15:20:08.456Z,52.63
2022-09-18T15:22:37.110Z,53.00
2022-09-18T15:25:05.952Z,53.01
2022-09-18T15:27:37.681Z,52.47
2022-09-18T15:30:09.693Z,52.93
2022-09-18T15:32:42.552Z,53.31
2022-09-18T15:35:14.108Z,53.07
2022-09-18T15:37:42.823Z,53.78
2022-09-18T15:40:17.799Z,53.84
2022-09-18T15:42:53.096Z,54.32
2022-09-18T15:45:27.373Z,54.33
2022-09-18T15:47:55.896Z,56.17
2022-09-18T15:50:40.912Z,55.36
2022-09-18T15:53:17.268Z,55.23
2022-09-18T15:55:54.410Z,56.26
2022-09-18T15:58:44.106Z,55.66
2022-09-18T16:01:18.013Z,55.50
2022-09-18T16:03:46.625Z,54.66
2022-09-18T16:06:22.482Z,53.68
2022-09-18T16:08:53.869Z,54.19
2022-09-18T16:11:43.163Z,54.82
2022-09-18T16:14:30.480Z,56.76
2022-09-18T16:17:13.680Z,57.66
2022-09-18T16:19:46.543Z,58.46
2022-09-18T16:22:16.834Z,57.98
2022-09-18T16:24:50.807Z,58.01
2022-09-18T16:27:22.138Z,59.31
2022-09-18T16:29:52.001Z,58.47
2022-09-18T16:32:21.702Z,58.27
2022-09-18T16:34:54.290Z,57.51
2022-09-18T16:37:22.991Z,56.55
2022-09-18T16:39:54.350Z,57.45
2022-09-18T16:42:23.874Z,56.16
2022-09-18T16:45:00.393Z,57.73
2022-09-18T16:47:29.000Z,57.25
2022-09-18T16:49:58.910Z,55.75
2022-09-18T16:52:27.218Z,56.39
2022-09-18T16:54:56.801Z,56.74
2022-09-18T16:57:27.708Z,56.70
2022-09-18T17:00:02.660Z,56.02
2022-09-18T17:02:31.636Z,56.69
2022-09-18T17:05:02.311Z,57.35
2022-09-18T17:07:31.024Z,57.52
2022-09-18T17:10:03.402Z,58.15
2022-09-18T17:12:31.949Z,58.24
2022-09-18T17:15:04.827Z,58.36
2022-09-18T17:17:34.067Z,59.32
2022-09-18T17:20:10.069Z,58.26
2022-09-18T17:22:38.925Z,58.61
2022-09-18T17:25:09.762Z,58.66
2022-09-18T17:27:43.418Z,58.60
2022-09-18T17:30:20.722Z,58.26
2022-09-18T17:32:52.218Z,60.44
2022-09-18T17:35:26.186Z,59.76
2022-09-18T17:37:58.806Z,59.00
2022-09-18T17:40:28.712Z,59.83
2022-09-18T17:43:01.228Z,59.82
2022-09-18T17:45:36.056Z,59.55
2022-09-18T17:48:04.792Z,59.46
2022-09-18T17:50:40.146Z,59.51
2022-09-18T17:53:10.231Z,60.26
2022-09-18T17:55:39.556Z,60.17
2022-09-18T17:58:07.867Z,60.45
2022-09-18T18:00:40.037Z,59.79
2022-09-18T18:03:09.010Z,60.31
2022-09-18T18:06:07.291Z,60.58
2022-09-18T18:08:38.626Z,60.37
2022-09-18T18:11:07.681Z,60.64
2022-09-18T18:13:36.909Z,60.73
2022-09-18T18:16:06.532Z,60.99
2022-09-18T18:18:35.055Z,60.55
2022-09-18T18:21:07.574Z,60.60
2022-09-18T18:23:40.682Z,61.39
2022-09-18T18:26:12.378Z,61.06
2022-09-18T18:28:41.687Z,61.16
2022-09-18T18:31:12.898Z,61.21
2022-09-18T18:33:42.938Z,60.47
2022-09-18T18:36:13.725Z,61.06
2022-09-18T18:38:44.330Z,60.19
2022-09-18T18:41:14.551Z,60.94
2022-09-18T18:43:45.121Z,61.38
2022-09-18T18:46:15.783Z,60.54
2022-09-18T18:48:46.212Z,61.51
2022-09-18T18:51:23.148Z,60.79
2022-09-18T18:54:03.111Z,62.29
2022-09-18T18:56:32.491Z,62.11
2022-09-18T18:59:03.964Z,62.04
2022-09-18T19:01:33.082Z,61.49
2022-09-18T19:04:02.841Z,61.66
2022-09-18T19:06:31.659Z,62.51
2022-09-18T19:09:05.537Z,63.34
2022-09-18T19:11:50.846Z,63.31
2022-09-18T19:14:29.995Z,63.19
2022-09-18T19:16:58.544Z,63.74
2022-09-18T19:19:30.055Z,62.13
2022-09-18T19:21:59.745Z,62.77
2022-09-18T19:24:32.511Z,62.43
2022-09-18T19:27:01.314Z,62.97
2022-09-18T19:29:31.279Z,62.97
2022-09-18T19:32:00.347Z,62.96
2022-09-18T19:34:31.259Z,62.74
2022-09-18T19:37:02.276Z,63.21
2022-09-18T19:39:39.520Z,63.29
2022-09-18T19:42:13.116Z,63.29
2022-09-18T19:44:44.400Z,63.06
2022-09-18T19:47:20.710Z,63.27
2022-09-18T19:49:49.311Z,63.63
2022-09-18T19:52:21.031Z,63.13
2022-09-18T19:54:52.057Z,63.35
2022-09-18T19:57:24.493Z,63.62
2022-09-18T19:59:54.269Z,64.20
2022-09-18T20:02:25.463Z,63.84
2022-09-18T20:04:54.229Z,65.68
2022-09-18T20:07:25.978Z,65.15
2022-09-18T20:09:55.902Z,64.26
2022-09-18T20:12:28.957Z,64.29
2022-09-18T20:15:01.131Z,63.40
2022-09-18T20:17:32.294Z,64.52
2022-09-18T20:20:01.422Z,63.53
2022-09-18T20:22:30.183Z,64.81
2022-09-18T20:25:00.005Z,64.48
2022-09-18T20:27:29.381Z,64.24
2022-09-18T20:29:58.027Z,62.15
2022-09-18T20:32:31.629Z,62.95
2022-09-18T20:35:00.373Z,63.20
2022-09-18T20:37:34.548Z,63.27
2022-09-18T20:40:05.525Z,63.52
2022-09-18T20:42:35.561Z,62.88
2022-09-18T20:45:08.665Z,63.06
2022-09-18T20:47:44.824Z,62.74
2022-09-18T20:50:15.154Z,62.81
2022-09-18T20:52:52.318Z,62.69
2022-09-18T20:55:24.911Z,63.00
2022-09-18T20:57:53.255Z,62.44
2022-09-18T21:00:25.662Z,62.99
2022-09-18T21:02:54.055Z,62.32
2022-09-18T21:05:27.138Z,62.89
2022-09-18T21:08:03.135Z,62.14
2022-09-18T21:10:33.054Z,61.68
2022-09-18T21:13:06.428Z,62.03
2022-09-18T21:15:35.068Z,61.72
2022-09-18T21:18:09.997Z,60.80
2022-09-18T21:20:38.577Z,60.29
2022-09-18T21:23:26.576Z,58.71
2022-09-18T21:26:05.714Z,58.04
2022-09-18T21:28:34.400Z,57.20
2022-09-18T21:31:10.789Z,57.08
2022-09-18T21:33:47.170Z,57.62
2022-09-18T21:36:19.035Z,57.40
2022-09-18T21:38:49.101Z,56.95
2022-09-18T21:41:22.172Z,56.18
2022-09-18T21:43:53.348Z,56.84
2022-09-18T21:46:31.353Z,56.03
2022-09-18T21:49:01.508Z,56.89
2022-09-18T21:51:29.841Z,57.19
2022-09-18T21:54:06.779Z,57.74
2022-09-18T21:56:36.740Z,57.18
2022-09-18T21:59:06.443Z,56.87
2022-09-18T22:01:35.493Z,56.45
2022-09-18T22:04:11.275Z,56.42
2022-09-18T22:06:42.045Z,57.15
2022-09-18T22:09:14.216Z,57.44
2022-09-18T22:11:51.455Z,58.33
2022-09-18T22:14:21.977Z,57.32
2022-09-18T22:16:57.584Z,57.06
2022-09-18T22:19:41.257Z,56.75
2022-09-18T22:22:12.737Z,57.66
2022-09-18T22:24:45.275Z,57.24
2022-09-18T22:27:19.710Z,56.91
2022-09-18T22:29:48.358Z,57.31
2022-09-18T22:32:25.967Z,57.07
2022-09-18T22:34:58.247Z,57.14
2022-09-18T22:37:35.059Z,56.19
2022-09-18T22:40:04.645Z,56.15
2022-09-18T22:42:34.258Z,57.28
2022-09-18T22:45:06.022Z,57.22
2022-09-18T22:47:34.572Z,56.42
2022-09-18T22:50:08.464Z,56.83
2022-09-18T22:52:38.018Z,56.51
2022-09-18T22:55:09.606Z,57.30
2022-09-18T22:57:40.068Z,55.99
2022-09-18T23:00:16.565Z,56.54
2022-09-18T23:02:49.661Z,55.75
2022-09-18T23:05:18.184Z,56.51
2022-09-18T23:07:49.476Z,55.88
2022-09-18T23:10:18.799Z,55.97
2022-09-18T23:12:55.556Z,55.97
2022-09-18T23:15:23.923Z,55.73
2022-09-18T23:17:57.785Z,55.98
2022-09-18T23:20:26.210Z,56.49
2022-09-18T23:22:59.793Z,55.84
2022-09-18T23:25:28.075Z,55.73
2022-09-18T23:28:01.223Z,56.71
2022-09-18T23:30:29.561Z,56.82
2022-09-18T23:32:59.210Z,56.83
2022-09-18T23:35:27.644Z,56.47
2022-09-18T23:38:00.026Z,55.85
2022-09-18T23:40:28.610Z,57.46
2022-09-18T23:43:03.381Z,56.70
2022-09-18T23:45:34.740Z,56.26
2022-09-18T23:48:03.922Z,55.87
2022-09-18T23:50:32.494Z,56.27
2022-09-18T23:53:06.609Z,55.77
2022-09-18T23:55:35.203Z,54.95
2022-09-18T23:58:09.121Z,53.80
